createdAt,value
2018-10-07T00:00:06.869Z,0.00
2018-10-07T00:01:06.862Z,0.00
2018-10-07T00:02:06.847Z,0.00
2018-10-07T00:03:06.844Z,0.00
2018-10-07T00:04:06.850Z,0.00
2018-10-07T00:05:06.814Z,0.00
2018-10-07T00:06:06.809Z,0.00
2018-10-07T00:07:06.792Z,0.00
2018-10-07T00:08:06.781Z,0.00
2018-10-07T00:09:06.796Z,0.00
2018-10-07T00:10:06.757Z,0.00
2018-10-07T00:11:06.749Z,0.00
2018-10-07T00:12:06.731Z,0.00
2018-10-07T00:13:06.724Z,0.00
2018-10-07T00:14:06.737Z,0.00
2018-10-07T00:15:06.699Z,0.00
2018-10-07T00:16:06.687Z,0.00
2018-10-07T00:17:06.677Z,0.00
2018-10-07T00:18:06.668Z,0.00
2018-10-07T00:19:06.676Z,0.00
2018-10-07T00:20:07.095Z,0.00
2018-10-07T00:21:06.758Z,0.00
2018-10-07T00:22:06.688Z,0.00
2018-10-07T00:23:06.665Z,0.00
2018-10-07T00:24:06.615Z,0.00
2018-10-07T00:25:06.589Z,0.00
2018-10-07T00:26:06.568Z,0.00
2018-10-07T00:27:06.657Z,0.00
2018-10-07T00:28:07.957Z,0.00
2018-10-07T00:29:06.729Z,0.00
2018-10-07T00:30:06.523Z,0.00
2018-10-07T00:31:06.613Z,0.00
2018-10-07T00:32:06.498Z,0.00
2018-10-07T00:33:06.509Z,0.00
2018-10-07T00:34:06.496Z,0.00
2018-10-07T00:35:06.663Z,0.00
2018-10-07T00:36:06.982Z,0.00
2018-10-07T00:37:06.790Z,0.00
2018-10-07T00:38:06.580Z,0.00
2018-10-07T00:39:06.576Z,0.00
2018-10-07T00:40:06.412Z,0.00
2018-10-07T00:41:06.495Z,0.00
2018-10-07T00:42:06.401Z,0.00
2018-10-07T00:43:06.511Z,0.00
2018-10-07T00:44:06.582Z,0.00
2018-10-07T00:45:06.357Z,0.00
2018-10-07T00:46:06.340Z,0.00
2018-10-07T00:47:06.635Z,0.00
2018-10-07T00:48:06.320Z,0.00
2018-10-07T00:49:06.322Z,0.00
2018-10-07T00:50:06.297Z,0.00
2018-10-07T00:51:06.284Z,0.00
2018-10-07T00:52:06.333Z,0.00
2018-10-07T00:53:06.859Z,0.00
2018-10-07T00:54:06.468Z,0.00
2018-10-07T00:55:06.345Z,0.00
2018-10-07T00:56:06.828Z,0.00
2018-10-07T00:57:06.724Z,0.00
2018-10-07T00:58:06.196Z,0.00
2018-10-07T00:59:06.317Z,0.00
2018-10-07T01:00:06.307Z,0.00
2018-10-07T01:01:06.163Z,0.00
2018-10-07T01:02:06.154Z,0.00
2018-10-07T01:03:06.268Z,0.00
2018-10-07T01:04:06.148Z,0.00
2018-10-07T01:05:06.125Z,0.00
2018-10-07T01:06:07.014Z,0.00
2018-10-07T01:07:07.653Z,0.00
2018-10-07T01:08:06.088Z,0.00
2018-10-07T01:09:06.095Z,0.00
2018-10-07T01:10:06.080Z,0.00
2018-10-07T01:11:06.531Z,0.00
2018-10-07T01:12:06.095Z,0.00
2018-10-07T01:13:06.115Z,0.00
2018-10-07T01:14:06.044Z,0.00
2018-10-07T01:15:06.007Z,0.00
2018-10-07T01:16:06.609Z,0.00
2018-10-07T01:17:06.212Z,0.00
2018-10-07T01:18:06.249Z,0.00
2018-10-07T01:19:06.744Z,0.00
2018-10-07T01:20:05.987Z,0.00
2018-10-07T01:21:06.023Z,0.00
2018-10-07T01:22:06.431Z,0.00
2018-10-07T01:23:06.624Z,0.00
2018-10-07T01:24:06.135Z,0.00
2018-10-07T01:25:05.886Z,0.00
2018-10-07T01:26:06.164Z,0.00
2018-10-07T01:27:06.022Z,0.00
2018-10-07T01:28:05.988Z,0.00
2018-10-07T01:29:05.910Z,0.00
2018-10-07T01:30:05.839Z,0.00
2018-10-07T01:31:05.819Z,0.00
2018-10-07T01:32:05.819Z,0.00
2018-10-07T01:33:05.800Z,0.00
2018-10-07T01:34:05.906Z,0.00
2018-10-07T01:35:06.188Z,0.00
2018-10-07T01:36:06.874Z,0.00
2018-10-07T01:37:06.365Z,0.00
2018-10-07T01:38:06.318Z,0.00
2018-10-07T01:39:08.695Z,0.00
2018-10-07T01:40:05.924Z,0.00
2018-10-07T01:41:05.793Z,0.00
2018-10-07T01:42:05.885Z,0.00
2018-10-07T01:43:05.784Z,0.00
2018-10-07T01:44:05.699Z,0.00
2018-10-07T01:45:05.655Z,0.00
2018-10-07T01:46:05.717Z,0.00
2018-10-07T01:47:05.640Z,0.00
2018-10-07T01:48:05.630Z,0.00
2018-10-07T01:49:05.837Z,0.00
2018-10-07T01:50:05.607Z,0.00
2018-10-07T01:51:05.618Z,0.00
2018-10-07T01:52:05.829Z,0.00
2018-10-07T01:53:06.352Z,0.00
2018-10-07T01:54:05.575Z,0.00
2018-10-07T01:55:05.550Z,0.00
2018-10-07T01:56:05.543Z,0.00
2018-10-07T01:57:05.520Z,0.00
2018-10-07T01:58:05.511Z,0.00
2018-10-07T01:59:05.520Z,0.00
2018-10-07T02:00:05.491Z,0.00
2018-10-07T02:01:05.477Z,0.00
2018-10-07T02:02:05.461Z,0.00
2018-10-07T02:03:05.453Z,0.00
2018-10-07T02:04:05.457Z,0.00
2018-10-07T02:05:05.485Z,0.00
2018-10-07T02:06:05.413Z,0.00
2018-10-07T02:07:05.403Z,0.00
2018-10-07T02:08:05.391Z,0.00
2018-10-07T02:09:05.405Z,0.00
2018-10-07T02:10:05.389Z,0.00
2018-10-07T02:11:05.355Z,0.00
2018-10-07T02:12:05.345Z,0.00
2018-10-07T02:13:05.335Z,0.00
2018-10-07T02:14:05.436Z,0.00
2018-10-07T02:15:05.314Z,0.00
2018-10-07T02:16:05.301Z,0.00
2018-10-07T02:17:05.286Z,0.00
2018-10-07T02:18:05.278Z,0.00
2018-10-07T02:19:05.289Z,0.00
2018-10-07T02:20:05.262Z,0.00
2018-10-07T02:21:05.237Z,0.00
2018-10-07T02:22:05.233Z,0.00
2018-10-07T02:23:05.221Z,0.00
2018-10-07T02:24:05.223Z,0.00
2018-10-07T02:25:05.201Z,0.00
2018-10-07T02:26:05.189Z,0.00
2018-10-07T02:27:05.172Z,0.00
2018-10-07T02:28:05.167Z,0.00
2018-10-07T02:29:05.171Z,0.00
2018-10-07T02:30:05.134Z,0.00
2018-10-07T02:31:05.132Z,0.00
2018-10-07T02:32:05.113Z,0.00
2018-10-07T02:33:05.104Z,0.00
2018-10-07T02:34:05.118Z,0.00
2018-10-07T02:35:05.076Z,0.00
2018-10-07T02:36:05.073Z,0.00
2018-10-07T02:37:05.055Z,0.00
2018-10-07T02:38:05.042Z,0.00
2018-10-07T02:39:05.061Z,0.00
2018-10-07T02:40:05.020Z,0.00
2018-10-07T02:41:05.014Z,0.00
2018-10-07T02:42:05.002Z,0.00
2018-10-07T02:43:04.984Z,0.00
2018-10-07T02:44:05.002Z,0.00
2018-10-07T02:45:04.958Z,0.00
2018-10-07T02:46:04.951Z,0.00
2018-10-07T02:47:04.943Z,0.00
2018-10-07T02:48:04.924Z,0.00
2018-10-07T02:49:04.944Z,0.00
2018-10-07T02:50:04.911Z,0.00
2018-10-07T02:51:04.896Z,0.00
2018-10-07T02:52:04.887Z,0.00
2018-10-07T02:53:04.889Z,0.00
2018-10-07T02:54:04.886Z,0.00
2018-10-07T02:55:04.848Z,0.00
2018-10-07T02:56:04.838Z,0.00
2018-10-07T02:57:04.825Z,0.00
2018-10-07T02:58:04.816Z,0.00
2018-10-07T02:59:04.830Z,0.00
2018-10-07T03:00:04.786Z,0.00
2018-10-07T03:01:04.784Z,0.00
2018-10-07T03:02:04.763Z,0.00
2018-10-07T03:03:04.760Z,0.00
2018-10-07T03:04:04.773Z,0.00
2018-10-07T03:05:04.729Z,0.00
2018-10-07T03:06:04.725Z,0.00
2018-10-07T03:07:04.705Z,0.00
2018-10-07T03:08:04.693Z,0.00
2018-10-07T03:09:04.716Z,0.00
2018-10-07T03:10:04.670Z,0.00
2018-10-07T03:11:04.661Z,0.00
2018-10-07T03:12:04.657Z,0.00
2018-10-07T03:13:04.640Z,0.00
2018-10-07T03:14:04.653Z,0.00
2018-10-07T03:15:04.612Z,0.00
2018-10-07T03:16:04.615Z,0.00
2018-10-07T03:17:04.590Z,0.00
2018-10-07T03:18:04.581Z,0.00
2018-10-07T03:19:04.595Z,0.00
2018-10-07T03:20:04.553Z,0.00
2018-10-07T03:21:04.554Z,0.00
2018-10-07T03:22:04.536Z,0.00
2018-10-07T03:23:04.522Z,0.00
2018-10-07T03:24:04.539Z,0.00
2018-10-07T03:25:04.495Z,0.00
2018-10-07T03:26:04.487Z,0.00
2018-10-07T03:27:04.477Z,0.00
2018-10-07T03:28:04.464Z,0.00
2018-10-07T03:29:04.481Z,0.00
2018-10-07T03:30:04.444Z,0.00
2018-10-07T03:31:04.432Z,0.00
2018-10-07T03:32:04.415Z,0.00
2018-10-07T03:33:04.412Z,0.00
2018-10-07T03:34:04.420Z,0.00
2018-10-07T03:35:04.384Z,0.00
2018-10-07T03:36:04.378Z,0.00
2018-10-07T03:37:04.358Z,0.00
2018-10-07T03:38:04.348Z,0.00
2018-10-07T03:39:04.371Z,0.00
2018-10-07T03:40:04.329Z,0.00
2018-10-07T03:41:04.314Z,0.00
2018-10-07T03:42:04.300Z,0.00
2018-10-07T03:43:04.297Z,0.00
2018-10-07T03:44:04.303Z,0.00
2018-10-07T03:45:04.270Z,0.00
2018-10-07T03:46:04.262Z,0.00
2018-10-07T03:47:04.242Z,0.00
2018-10-07T03:48:04.239Z,0.00
2018-10-07T03:49:04.239Z,0.00
2018-10-07T03:50:04.216Z,0.00
2018-10-07T03:51:04.196Z,0.00
2018-10-07T03:52:04.183Z,0.00
2018-10-07T03:53:04.181Z,0.00
2018-10-07T03:54:04.181Z,0.00
2018-10-07T03:55:04.154Z,0.00
2018-10-07T03:56:04.141Z,0.00
2018-10-07T03:57:04.125Z,0.00
2018-10-07T03:58:04.119Z,0.00
2018-10-07T03:59:04.126Z,0.00
2018-10-07T04:00:04.091Z,0.00
2018-10-07T04:01:04.088Z,0.00
2018-10-07T04:02:04.073Z,0.00
2018-10-07T04:03:04.058Z,0.00
2018-10-07T04:04:04.078Z,0.00
2018-10-07T04:05:04.043Z,0.00
2018-10-07T04:06:04.019Z,0.00
2018-10-07T04:07:04.017Z,0.00
2018-10-07T04:08:04.005Z,0.00
2018-10-07T04:09:04.007Z,0.00
2018-10-07T04:10:03.983Z,0.00
2018-10-07T04:11:03.962Z,0.00
2018-10-07T04:12:03.952Z,0.00
2018-10-07T04:13:03.943Z,0.00
2018-10-07T04:14:03.949Z,0.00
2018-10-07T04:15:03.919Z,0.00
2018-10-07T04:16:03.908Z,0.00
2018-10-07T04:17:03.899Z,0.00
2018-10-07T04:18:03.895Z,0.00
2018-10-07T04:19:03.892Z,0.00
2018-10-07T04:20:03.862Z,0.00
2018-10-07T04:21:03.851Z,0.00
2018-10-07T04:22:03.836Z,0.00
2018-10-07T04:23:03.834Z,0.00
2018-10-07T04:24:03.838Z,0.00
2018-10-07T04:25:03.802Z,0.00
2018-10-07T04:26:03.794Z,0.00
2018-10-07T04:27:03.779Z,0.00
2018-10-07T04:28:03.772Z,0.00
2018-10-07T04:29:03.780Z,0.00
2018-10-07T04:30:03.743Z,0.00
2018-10-07T04:31:03.737Z,0.00
2018-10-07T04:32:03.723Z,0.00
2018-10-07T04:33:03.710Z,0.00
2018-10-07T04:34:03.715Z,0.00
2018-10-07T04:35:03.684Z,0.00
2018-10-07T04:36:03.676Z,0.00
2018-10-07T04:37:03.748Z,0.00
2018-10-07T04:38:03.654Z,0.00
2018-10-07T04:39:03.662Z,0.00
2018-10-07T04:40:03.630Z,0.00
2018-10-07T04:41:03.621Z,0.00
2018-10-07T04:42:03.603Z,0.00
2018-10-07T04:43:03.595Z,0.00
2018-10-07T04:44:03.605Z,0.00
2018-10-07T04:45:03.570Z,0.00
2018-10-07T04:46:03.554Z,0.00
2018-10-07T04:47:03.553Z,0.00
2018-10-07T04:48:03.534Z,0.00
2018-10-07T04:49:03.548Z,0.00
2018-10-07T04:50:03.511Z,0.00
2018-10-07T04:51:03.499Z,0.00
2018-10-07T04:52:03.489Z,0.00
2018-10-07T04:53:03.482Z,0.00
2018-10-07T04:54:03.499Z,0.00
2018-10-07T04:55:03.453Z,0.00
2018-10-07T04:56:03.447Z,0.00
2018-10-07T04:57:03.432Z,0.00
2018-10-07T04:58:03.417Z,0.00
2018-10-07T04:59:03.415Z,0.00
2018-10-07T05:00:03.447Z,0.00
2018-10-07T05:01:03.387Z,0.00
2018-10-07T05:02:03.375Z,0.00
2018-10-07T05:03:03.360Z,0.00
2018-10-07T05:04:03.347Z,0.00
2018-10-07T05:05:03.370Z,0.00
2018-10-07T05:06:03.331Z,0.00
2018-10-07T05:07:03.319Z,0.00
2018-10-07T05:08:03.309Z,0.00
2018-10-07T05:09:03.294Z,0.00
2018-10-07T05:10:03.309Z,0.00
2018-10-07T05:11:03.271Z,0.00
2018-10-07T05:12:03.323Z,0.00
2018-10-07T05:13:03.252Z,0.00
2018-10-07T05:14:03.243Z,0.00
2018-10-07T05:15:03.245Z,0.00
2018-10-07T05:16:03.212Z,0.00
2018-10-07T05:17:03.209Z,0.00
2018-10-07T05:18:03.189Z,0.00
2018-10-07T05:19:03.179Z,4.00
2018-10-07T05:20:03.197Z,4.00
2018-10-07T05:21:03.243Z,4.00
2018-10-07T05:22:03.154Z,4.00
2018-10-07T05:23:03.131Z,0.00
2018-10-07T05:24:03.122Z,4.00
2018-10-07T05:25:03.136Z,4.00
2018-10-07T05:26:03.105Z,4.00
2018-10-07T05:27:03.089Z,8.00
2018-10-07T05:28:03.080Z,8.00
2018-10-07T05:29:03.066Z,8.00
2018-10-07T05:30:03.078Z,8.00
2018-10-07T05:31:03.052Z,12.00
2018-10-07T05:32:03.039Z,16.00
2018-10-07T05:33:03.042Z,16.00
2018-10-07T05:34:03.009Z,20.00
2018-10-07T05:35:03.031Z,28.00
2018-10-07T05:36:02.992Z,36.00
2018-10-07T05:37:02.978Z,40.00
2018-10-07T05:38:02.967Z,36.00
2018-10-07T05:39:02.954Z,44.00
2018-10-07T05:40:02.959Z,52.00
2018-10-07T05:41:02.934Z,60.00
2018-10-07T05:42:02.926Z,68.00
2018-10-07T05:43:02.911Z,72.00
2018-10-07T05:44:02.902Z,72.00
2018-10-07T05:45:02.905Z,80.00
2018-10-07T05:46:02.932Z,88.00
2018-10-07T05:47:02.857Z,88.00
2018-10-07T05:48:02.871Z,84.00
2018-10-07T05:49:03.104Z,96.00
2018-10-07T05:50:02.848Z,128.00
2018-10-07T05:51:02.824Z,160.00
2018-10-07T05:52:02.803Z,192.00
2018-10-07T05:53:02.796Z,208.00
2018-10-07T05:54:02.787Z,220.00
2018-10-07T05:55:03.571Z,212.00
2018-10-07T05:56:02.764Z,232.00
2018-10-07T05:57:02.743Z,256.00
2018-10-07T05:58:02.747Z,296.00
2018-10-07T05:59:02.721Z,340.00
2018-10-07T06:00:02.732Z,368.00
2018-10-07T06:01:02.706Z,396.00
2018-10-07T06:02:02.750Z,424.00
2018-10-07T06:03:02.684Z,424.00
2018-10-07T06:04:02.669Z,412.00
2018-10-07T06:05:02.678Z,444.00
2018-10-07T06:06:02.641Z,496.00
2018-10-07T06:07:02.645Z,556.00
2018-10-07T06:08:02.627Z,568.00
2018-10-07T06:09:03.051Z,588.00
2018-10-07T06:10:02.636Z,624.00
2018-10-07T06:11:02.585Z,680.00
2018-10-07T06:12:02.575Z,696.00
2018-10-07T06:13:02.567Z,676.00
2018-10-07T06:14:02.558Z,700.00
2018-10-07T06:15:02.649Z,680.00
2018-10-07T06:16:02.532Z,688.00
2018-10-07T06:17:02.520Z,708.00
2018-10-07T06:18:02.505Z,700.00
2018-10-07T06:19:02.501Z,700.00
2018-10-07T06:20:02.491Z,704.00
2018-10-07T06:21:02.492Z,692.00
2018-10-07T06:22:02.462Z,664.00
2018-10-07T06:23:02.456Z,652.00
2018-10-07T06:24:02.436Z,652.00
2018-10-07T06:25:02.433Z,632.00
2018-10-07T06:26:02.444Z,620.00
2018-10-07T06:27:02.404Z,600.00
2018-10-07T06:28:02.394Z,488.00
2018-10-07T06:29:02.380Z,616.00
2018-10-07T06:30:02.534Z,656.00
2018-10-07T06:31:02.388Z,684.00
2018-10-07T06:32:02.500Z,684.00
2018-10-07T06:33:02.339Z,680.00
2018-10-07T06:34:02.322Z,656.00
2018-10-07T06:35:02.371Z,696.00
2018-10-07T06:36:02.331Z,760.00
2018-10-07T06:37:02.293Z,792.00
2018-10-07T06:38:02.276Z,880.00
2018-10-07T06:39:02.316Z,912.00
2018-10-07T06:40:02.264Z,880.00
2018-10-07T06:41:02.269Z,840.00
2018-10-07T06:42:02.254Z,840.00
2018-10-07T06:43:02.231Z,856.00
2018-10-07T06:44:02.216Z,888.00
2018-10-07T06:45:02.201Z,1004.00
2018-10-07T06:46:02.218Z,1304.00
2018-10-07T06:47:02.177Z,1340.00
2018-10-07T06:48:02.167Z,1128.00
2018-10-07T06:49:02.153Z,1084.00
2018-10-07T06:50:02.146Z,2108.00
2018-10-07T06:51:02.155Z,3880.00
2018-10-07T06:52:02.152Z,4336.00
2018-10-07T06:53:02.105Z,4272.00
2018-10-07T06:54:02.104Z,4184.00
2018-10-07T06:55:02.080Z,4172.00
2018-10-07T06:56:02.092Z,4284.00
2018-10-07T06:57:02.091Z,4248.00
2018-10-07T06:58:02.055Z,4204.00
2018-10-07T06:59:02.043Z,4408.00
2018-10-07T07:00:02.030Z,4584.00
2018-10-07T07:01:02.185Z,4840.00
2018-10-07T07:02:02.000Z,5472.00
2018-10-07T07:03:01.999Z,4748.00
2018-10-07T07:04:01.981Z,4460.00
2018-10-07T07:05:01.979Z,4608.00
2018-10-07T07:06:02.048Z,4536.00
2018-10-07T07:07:01.949Z,4560.00
2018-10-07T07:08:01.940Z,3712.00
2018-10-07T07:09:01.922Z,3532.00
2018-10-07T07:10:01.907Z,4044.00
2018-10-07T07:11:01.928Z,4360.00
2018-10-07T07:12:01.888Z,3828.00
2018-10-07T07:13:01.918Z,3972.00
2018-10-07T07:14:01.878Z,4072.00
2018-10-07T07:15:01.857Z,3756.00
2018-10-07T07:16:01.870Z,3640.00
2018-10-07T07:17:01.828Z,3432.00
2018-10-07T07:18:01.855Z,3268.00
2018-10-07T07:19:01.811Z,3056.00
2018-10-07T07:20:01.801Z,2900.00
2018-10-07T07:21:01.821Z,3144.00
2018-10-07T07:22:01.983Z,3260.00
2018-10-07T07:23:01.761Z,3288.00
2018-10-07T07:24:01.755Z,3192.00
2018-10-07T07:25:01.737Z,3064.00
2018-10-07T07:26:01.747Z,2900.00
2018-10-07T07:27:01.717Z,3028.00
2018-10-07T07:28:01.699Z,3208.00
2018-10-07T07:29:01.698Z,3352.00
2018-10-07T07:30:01.715Z,3580.00
2018-10-07T07:31:01.697Z,3832.00
2018-10-07T07:32:01.661Z,4048.00
2018-10-07T07:33:01.663Z,4152.00
2018-10-07T07:34:01.630Z,4212.00
2018-10-07T07:35:01.632Z,4352.00
2018-10-07T07:36:01.647Z,4552.00
2018-10-07T07:37:01.678Z,4624.00
2018-10-07T07:38:01.595Z,4764.00
2018-10-07T07:39:01.575Z,4976.00
2018-10-07T07:40:01.570Z,5188.00
2018-10-07T07:41:01.585Z,5532.00
2018-10-07T07:42:01.538Z,5856.00
2018-10-07T07:43:01.536Z,6376.00
2018-10-07T07:44:01.523Z,6452.00
2018-10-07T07:45:01.508Z,7044.00
2018-10-07T07:46:01.518Z,7228.00
2018-10-07T07:47:01.483Z,7304.00
2018-10-07T07:48:02.037Z,7184.00
2018-10-07T07:49:01.591Z,7180.00
2018-10-07T07:50:01.554Z,7208.00
2018-10-07T07:51:01.510Z,7576.00
2018-10-07T07:52:01.536Z,8040.00
2018-10-07T07:53:01.503Z,8532.00
2018-10-07T07:54:02.146Z,9400.00
2018-10-07T07:55:01.631Z,10192.00
2018-10-07T07:56:01.672Z,11096.00
2018-10-07T07:57:01.478Z,11812.00
2018-10-07T07:58:01.360Z,12136.00
2018-10-07T07:59:01.452Z,11992.00
2018-10-07T08:00:01.445Z,11732.00
2018-10-07T08:01:03.979Z,11784.00
2018-10-07T08:02:01.854Z,11936.00
2018-10-07T08:03:01.416Z,12344.00
2018-10-07T08:04:01.283Z,12764.00
2018-10-07T08:05:01.397Z,13268.00
2018-10-07T08:06:01.320Z,13736.00
2018-10-07T08:07:01.286Z,14220.00
2018-10-07T08:08:01.567Z,15216.00
2018-10-07T08:09:01.809Z,15908.00
2018-10-07T08:10:01.788Z,16412.00
2018-10-07T08:11:01.291Z,16468.00
2018-10-07T08:12:01.267Z,16936.00
2018-10-07T08:13:01.460Z,17760.00
2018-10-07T08:14:01.353Z,19168.00
2018-10-07T08:15:01.343Z,20384.00
2018-10-07T08:16:01.791Z,18976.00
2018-10-07T08:17:01.587Z,18336.00
2018-10-07T08:18:01.318Z,17864.00
2018-10-07T08:20:25.200Z,16348.00
2018-10-07T08:21:25.220Z,7464.00
2018-10-07T08:22:27.853Z,17712.00
2018-10-07T08:23:29.561Z,28672.00
2018-10-07T08:24:29.452Z,34560.00
2018-10-07T08:25:29.443Z,29856.00
2018-10-07T08:26:29.453Z,6992.00
2018-10-07T08:27:29.418Z,34144.00
2018-10-07T08:28:29.407Z,15504.00
2018-10-07T08:29:29.449Z,10588.00
2018-10-07T08:30:29.386Z,9700.00
2018-10-07T08:31:29.395Z,43296.00
2018-10-07T08:32:29.356Z,63808.00
2018-10-07T08:33:29.342Z,63904.00
2018-10-07T08:34:29.340Z,72832.00
2018-10-07T08:35:29.443Z,74240.00
2018-10-07T08:36:30.962Z,76608.00
2018-10-07T08:37:29.407Z,78272.00
2018-10-07T08:38:29.424Z,80000.00
2018-10-07T08:39:29.394Z,76928.00
2018-10-07T08:40:29.943Z,76416.00
2018-10-07T08:41:30.610Z,78080.00
2018-10-07T08:42:29.788Z,77952.00
2018-10-07T08:43:29.781Z,79552.00
2018-10-07T08:44:29.888Z,79552.00
2018-10-07T08:45:29.888Z,81056.00
2018-10-07T08:46:29.213Z,80128.00
2018-10-07T08:47:29.183Z,80032.00
2018-10-07T08:48:29.168Z,77568.00
2018-10-07T08:49:29.165Z,74976.00
2018-10-07T08:50:29.151Z,79360.00
2018-10-07T08:51:29.159Z,79712.00
2018-10-07T08:52:29.122Z,82208.00
2018-10-07T08:53:29.128Z,85184.00
2018-10-07T08:54:29.103Z,20160.00
2018-10-07T08:55:29.093Z,93760.00
2018-10-07T08:56:29.168Z,15336.00
2018-10-07T08:57:29.068Z,87744.00
2018-10-07T08:58:29.656Z,95456.00
2018-10-07T08:59:29.046Z,94880.00
2018-10-07T09:00:29.030Z,93536.00
2018-10-07T09:01:29.043Z,92992.00
2018-10-07T09:02:29.015Z,95360.00
2018-10-07T09:03:29.003Z,15472.00
2018-10-07T09:04:28.986Z,95168.00
2018-10-07T09:05:28.980Z,95136.00
2018-10-07T09:06:28.993Z,92416.00
2018-10-07T09:07:28.951Z,51360.00
2018-10-07T09:08:29.333Z,89216.00
2018-10-07T09:09:28.930Z,91456.00
2018-10-07T09:10:28.917Z,96544.00
2018-10-07T09:11:28.937Z,86048.00
2018-10-07T09:12:28.895Z,89536.00
2018-10-07T09:13:28.892Z,91648.00
2018-10-07T09:14:28.927Z,91200.00
2018-10-07T09:15:28.868Z,89248.00
2018-10-07T09:16:29.149Z,89984.00
2018-10-07T09:17:29.005Z,89408.00
2018-10-07T09:18:29.225Z,90112.00
2018-10-07T09:19:29.005Z,24192.00
2018-10-07T09:20:29.016Z,88928.00
2018-10-07T09:21:29.769Z,92352.00
2018-10-07T09:22:28.811Z,37504.00
2018-10-07T09:23:28.785Z,92896.00
2018-10-07T09:24:28.769Z,89952.00
2018-10-07T09:25:28.766Z,88512.00
2018-10-07T09:26:28.782Z,90208.00
2018-10-07T09:27:28.729Z,90848.00
2018-10-07T09:28:28.723Z,93280.00
2018-10-07T09:29:28.706Z,95520.00
2018-10-07T09:30:28.693Z,93184.00
2018-10-07T09:31:28.703Z,94144.00
2018-10-07T09:32:28.805Z,92960.00
2018-10-07T09:33:28.661Z,94336.00
2018-10-07T09:34:28.657Z,93024.00
2018-10-07T09:35:28.638Z,91552.00
2018-10-07T09:36:28.649Z,93664.00
2018-10-07T09:37:28.613Z,13496.00
2018-10-07T09:38:28.607Z,7456.00
2018-10-07T09:39:28.639Z,93504.00
2018-10-07T09:40:28.590Z,91936.00
2018-10-07T09:41:28.591Z,81856.00
2018-10-07T09:42:28.558Z,82528.00
2018-10-07T09:43:28.556Z,82848.00
2018-10-07T09:44:28.536Z,88288.00
2018-10-07T09:45:28.536Z,93600.00
2018-10-07T09:46:28.539Z,94272.00
2018-10-07T09:47:28.508Z,93600.00
2018-10-07T09:48:28.497Z,94944.00
2018-10-07T09:49:28.481Z,7392.00
2018-10-07T09:50:28.469Z,93504.00
2018-10-07T09:51:28.483Z,94720.00
2018-10-07T09:52:28.501Z,97440.00
2018-10-07T09:53:28.453Z,93504.00
2018-10-07T09:54:28.433Z,93216.00
2018-10-07T09:55:28.422Z,8308.00
2018-10-07T09:56:28.427Z,95648.00
2018-10-07T09:57:28.403Z,96224.00
2018-10-07T09:58:28.390Z,97664.00
2018-10-07T09:59:28.370Z,90976.00
2018-10-07T10:00:28.367Z,95808.00
2018-10-07T10:01:28.370Z,97408.00
2018-10-07T10:02:28.353Z,98016.00
2018-10-07T10:03:28.333Z,96768.00
2018-10-07T10:04:28.378Z,97984.00
2018-10-07T10:05:28.307Z,98496.00
2018-10-07T10:06:28.323Z,97696.00
2018-10-07T10:07:28.288Z,98816.00
2018-10-07T10:08:28.275Z,98240.00
2018-10-07T10:09:28.265Z,98400.00
2018-10-07T10:10:28.253Z,97472.00
2018-10-07T10:11:28.266Z,97376.00
2018-10-07T10:12:28.234Z,96256.00
2018-10-07T10:13:28.221Z,97088.00
2018-10-07T10:14:28.206Z,96928.00
2018-10-07T10:15:28.205Z,96576.00
2018-10-07T10:16:28.210Z,97248.00
2018-10-07T10:17:28.192Z,96672.00
2018-10-07T10:18:28.167Z,98016.00
2018-10-07T10:19:28.180Z,98400.00
2018-10-07T10:20:28.144Z,97184.00
2018-10-07T10:21:28.160Z,98784.00
2018-10-07T10:22:28.124Z,100224.00
2018-10-07T10:23:28.110Z,99392.00
2018-10-07T10:24:28.097Z,99616.00
2018-10-07T10:25:28.084Z,97312.00
2018-10-07T10:26:28.076Z,96384.00
2018-10-07T10:27:28.091Z,98592.00
2018-10-07T10:28:28.059Z,97664.00
2018-10-07T10:29:28.040Z,97696.00
2018-10-07T10:30:28.036Z,98592.00
2018-10-07T10:31:28.023Z,99712.00
2018-10-07T10:32:28.039Z,99264.00
2018-10-07T10:33:28.005Z,97600.00
2018-10-07T10:34:27.991Z,96928.00
2018-10-07T10:35:27.976Z,94144.00
2018-10-07T10:36:27.967Z,94752.00
2018-10-07T10:37:27.959Z,94336.00
2018-10-07T10:38:27.971Z,96640.00
2018-10-07T10:39:27.953Z,98496.00
2018-10-07T10:40:27.929Z,99552.00
2018-10-07T10:41:27.922Z,99584.00
2018-10-07T10:42:27.899Z,99680.00
2018-10-07T10:43:27.926Z,97184.00
2018-10-07T10:44:27.878Z,98400.00
2018-10-07T10:45:27.876Z,95776.00
2018-10-07T10:46:27.866Z,96320.00
2018-10-07T10:47:27.848Z,95392.00
2018-10-07T10:48:28.075Z,95008.00
2018-10-07T10:49:27.854Z,98464.00
2018-10-07T10:50:27.812Z,100128.00
2018-10-07T10:51:27.811Z,61024.00
2018-10-07T10:52:27.790Z,74720.00
2018-10-07T10:53:27.791Z,102304.00
2018-10-07T10:54:27.892Z,99936.00
2018-10-07T10:55:28.013Z,13620.00
2018-10-07T10:56:27.756Z,14452.00
2018-10-07T10:57:27.738Z,15408.00
2018-10-07T10:58:27.738Z,16340.00
2018-10-07T10:59:27.724Z,16776.00
2018-10-07T11:00:29.908Z,14896.00
2018-10-07T11:01:27.710Z,13676.00
2018-10-07T11:02:27.776Z,49344.00
2018-10-07T11:03:27.753Z,42784.00
2018-10-07T11:04:27.733Z,93632.00
2018-10-07T11:05:27.961Z,87264.00
2018-10-07T11:06:27.645Z,55264.00
2018-10-07T11:07:27.625Z,14248.00
2018-10-07T11:08:27.617Z,13876.00
2018-10-07T11:09:27.608Z,13872.00
2018-10-07T11:10:27.592Z,90464.00
2018-10-07T11:11:27.611Z,14104.00
2018-10-07T11:12:27.577Z,14096.00
2018-10-07T11:13:27.561Z,14056.00
2018-10-07T11:14:27.551Z,14164.00
2018-10-07T11:15:27.653Z,98752.00
2018-10-07T11:16:27.551Z,99680.00
2018-10-07T11:17:27.521Z,98688.00
2018-10-07T11:18:27.510Z,99328.00
2018-10-07T11:19:27.557Z,99136.00
2018-10-07T11:20:27.516Z,99744.00
2018-10-07T11:21:27.469Z,98208.00
2018-10-07T11:22:27.462Z,98688.00
2018-10-07T11:23:27.447Z,98816.00
2018-10-07T11:24:27.444Z,95680.00
2018-10-07T11:25:27.560Z,96448.00
2018-10-07T11:26:27.650Z,96384.00
2018-10-07T11:27:27.405Z,94016.00
2018-10-07T11:28:27.397Z,95552.00
2018-10-07T11:29:27.413Z,95648.00
2018-10-07T11:30:27.612Z,93408.00
2018-10-07T11:31:27.388Z,92608.00
2018-10-07T11:32:27.483Z,90944.00
2018-10-07T11:33:27.338Z,91104.00
2018-10-07T11:34:27.328Z,91392.00
2018-10-07T11:35:27.315Z,92832.00
2018-10-07T11:36:27.306Z,93184.00
2018-10-07T11:37:27.317Z,93824.00
2018-10-07T11:38:27.285Z,92288.00
2018-10-07T11:39:27.266Z,93152.00
2018-10-07T11:40:27.257Z,92064.00
2018-10-07T11:41:27.250Z,91968.00
2018-10-07T11:42:27.259Z,91072.00
2018-10-07T11:43:27.229Z,91520.00
2018-10-07T11:44:27.216Z,89152.00
2018-10-07T11:45:27.207Z,89760.00
2018-10-07T11:46:27.197Z,89152.00
2018-10-07T11:47:27.207Z,91872.00
2018-10-07T11:48:27.170Z,89920.00
2018-10-07T11:49:27.158Z,88544.00
2018-10-07T11:50:27.143Z,88064.00
2018-10-07T11:51:27.138Z,86208.00
2018-10-07T11:52:27.124Z,86976.00
2018-10-07T11:53:27.137Z,86944.00
2018-10-07T11:54:27.097Z,86976.00
2018-10-07T11:55:27.097Z,87264.00
2018-10-07T11:56:27.078Z,85856.00
2018-10-07T11:57:27.072Z,84480.00
2018-10-07T11:58:27.085Z,82144.00
2018-10-07T11:59:27.043Z,84672.00
2018-10-07T12:00:27.040Z,83328.00
2018-10-07T12:01:27.019Z,82752.00
2018-10-07T12:02:27.013Z,81536.00
2018-10-07T12:03:27.024Z,80576.00
2018-10-07T12:04:26.989Z,80576.00
2018-10-07T12:05:26.981Z,83136.00
2018-10-07T12:06:26.970Z,81120.00
2018-10-07T12:07:26.962Z,80800.00
2018-10-07T12:08:26.971Z,82720.00
2018-10-07T12:09:26.935Z,81184.00
2018-10-07T12:10:26.928Z,83520.00
2018-10-07T12:11:26.907Z,80192.00
2018-10-07T12:12:26.901Z,80000.00
2018-10-07T12:13:26.913Z,78368.00
2018-10-07T12:14:26.874Z,78528.00
2018-10-07T12:15:26.872Z,82592.00
2018-10-07T12:16:26.869Z,83200.00
2018-10-07T12:17:26.844Z,83680.00
2018-10-07T12:18:26.852Z,82112.00
2018-10-07T12:19:26.827Z,81056.00
2018-10-07T12:20:26.814Z,80960.00
2018-10-07T12:21:26.800Z,81536.00
2018-10-07T12:22:26.794Z,80352.00
2018-10-07T12:23:26.804Z,79392.00
2018-10-07T12:24:26.775Z,77472.00
2018-10-07T12:25:26.758Z,76576.00
2018-10-07T12:26:26.739Z,77568.00
2018-10-07T12:27:26.739Z,78976.00
2018-10-07T12:28:26.716Z,78208.00
2018-10-07T12:29:26.738Z,77856.00
2018-10-07T12:30:26.699Z,76064.00
2018-10-07T12:31:26.683Z,78432.00